Time;durP1;ratioP1;P1;durP2;ratioP2;P2;SDS_P1;SDS_P2;PMS_P1;PMS_P2;Temp;Humidity;BMP_temperature;BMP_pressure;BME280_temperature;BME280_humidity;BME280_pressure;Samples;Min_cycle;Max_cycle;Signal;HPM_P1;HPM_P2
2024/02/13 00:00:38;;;;;;;9.4;8.699999;;;;;;;7.67;81.47656;95010.53;;;;
2024/02/13 00:01:41;;;;;;;9.4;8.699999;;;;;;;7.67;81.47656;95010.53;;;;
2024/02/13 00:02:41;;;;;;;9.4;8.699999;;;;;;;7.67;81.47656;95010.53;;;;
2024/02/13 00:03:42;;;;;;;9.4;8.699999;;;;;;;7.67;81.47656;95010.53;;;;
2024/02/13 00:04:42;;;;;;;9.4;8.699999;;;;;;;7.67;81.47656;95010.53;;;;
2024/02/13 00:05:43;;;;;;;9.6;8.65;;;;;;;7.68;81.5957;95012.17;;;;
2024/02/13 00:06:44;;;;;;;9.6;8.65;;;;;;;7.68;81.5957;95012.17;;;;
2024/02/13 00:07:46;;;;;;;9.6;8.65;;;;;;;7.68;81.5957;95012.17;;;;
2024/02/13 00:08:47;;;;;;;9.6;8.65;;;;;;;7.68;81.5957;95012.17;;;;
2024/02/13 00:09:48;;;;;;;9.6;8.65;;;;;;;7.68;81.5957;95012.17;;;;
2024/02/13 00:10:49;;;;;;;9.6;8.65;;;;;;;7.68;81.5957;95012.17;;;;
2024/02/13 00:11:50;;;;;;;9.6;8.65;;;;;;;7.68;81.5957;95012.17;;;;
2024/02/13 00:12:51;;;;;;;9.6;8.65;;;;;;;7.68;81.5957;95012.17;;;;
2024/02/13 00:13:51;;;;;;;9.6;8.65;;;;;;;7.68;81.5957;95012.17;;;;
2024/02/13 00:14:52;;;;;;;9.6;8.65;;;;;;;7.68;81.5957;95012.17;;;;
2024/02/13 00:15:54;;;;;;;9.6;8.65;;;;;;;7.68;81.5957;95012.17;;;;
2024/02/13 00:16:56;;;;;;;9.15;8.35;;;;;;;7.67;82.12793;95031.16;;;;
2024/02/13 00:17:57;;;;;;;9.15;8.35;;;;;;;7.67;82.12793;95031.16;;;;
2024/02/13 00:19:01;;;;;;;9.15;8.35;;;;;;;7.67;82.12793;95031.16;;;;
2024/02/13 00:20:04;;;;;;;9.15;8.35;;;;;;;7.67;82.12793;95031.16;;;;
2024/02/13 00:21:07;;;;;;;9.15;8.35;;;;;;;7.67;82.12793;95031.16;;;;
2024/02/13 00:22:11;;;;;;;9.15;8.35;;;;;;;7.67;82.12793;95031.16;;;;
2024/02/13 00:23:12;;;;;;;9.15;8.35;;;;;;;7.67;82.12793;95031.16;;;;
2024/02/13 00:24:14;;;;;;;9.15;8.35;;;;;;;7.67;82.12793;95031.16;;;;
2024/02/13 00:25:15;;;;;;;9.15;8.35;;;;;;;7.67;82.12793;95031.16;;;;
2024/02/13 00:26:16;;;;;;;9.15;8.35;;;;;;;7.67;82.12793;95031.16;;;;
2024/02/13 00:27:16;;;;;;;8.1;7.3;;;;;;;7.7;81.52637;95055.25;;;;
2024/02/13 00:28:19;;;;;;;8.1;7.3;;;;;;;7.7;81.52637;95055.25;;;;
2024/02/13 00:29:19;;;;;;;8.1;7.3;;;;;;;7.7;81.52637;95055.25;;;;
2024/02/13 00:30:20;;;;;;;8.1;7.3;;;;;;;7.7;81.52637;95055.25;;;;
2024/02/13 00:31:20;;;;;;;8.1;7.3;;;;;;;7.7;81.52637;95055.25;;;;
2024/02/13 00:32:21;;;;;;;8.1;7.3;;;;;;;7.7;81.52637;95055.25;;;;
2024/02/13 00:33:21;;;;;;;8.1;7.3;;;;;;;7.7;81.52637;95055.25;;;;
2024/02/13 00:34:22;;;;;;;8.1;7.3;;;;;;;7.7;81.52637;95055.25;;;;
2024/02/13 00:35:22;;;;;;;8.1;7.3;;;;;;;7.7;81.52637;95055.25;;;;
2024/02/13 00:36:23;;;;;;;8.1;7.3;;;;;;;7.7;81.52637;95055.25;;;;
2024/02/13 00:37:23;;;;;;;7.95;7.3;;;;;;;7.77;81.50684;95058.81;;;;
2024/02/13 00:38:24;;;;;;;7.95;7.3;;;;;;;7.77;81.50684;95058.81;;;;
2024/02/13 00:39:25;;;;;;;7.95;7.3;;;;;;;7.77;81.50684;95058.81;;;;
2024/02/13 00:40:25;;;;;;;7.95;7.3;;;;;;;7.77;81.50684;95058.81;;;;
2024/02/13 00:41:26;;;;;;;7.95;7.3;;;;;;;7.77;81.50684;95058.81;;;;
2024/02/13 00:42:26;;;;;;;7.95;7.3;;;;;;;7.77;81.50684;95058.81;;;;
2024/02/13 00:43:30;;;;;;;7.95;7.3;;;;;;;7.77;81.50684;95058.81;;;;
2024/02/13 00:44:30;;;;;;;7.95;7.3;;;;;;;7.77;81.50684;95058.81;;;;
2024/02/13 00:45:31;;;;;;;7.95;7.3;;;;;;;7.77;81.50684;95058.81;;;;
2024/02/13 00:46:32;;;;;;;7.95;7.3;;;;;;;7.77;81.50684;95058.81;;;;
2024/02/13 00:47:32;;;;;;;7.95;7.3;;;;;;;7.77;81.50684;95058.81;;;;
2024/02/13 00:48:34;;;;;;;7.5;6.9;;;;;;;7.79;81.5;95090.09;;;;
2024/02/13 00:49:35;;;;;;;7.5;6.9;;;;;;;7.79;81.5;95090.09;;;;
2024/02/13 00:50:35;;;;;;;7.5;6.9;;;;;;;7.79;81.5;95090.09;;;;
2024/02/13 00:51:36;;;;;;;7.5;6.9;;;;;;;7.79;81.5;95090.09;;;;
2024/02/13 00:52:40;;;;;;;7.5;6.9;;;;;;;7.79;81.5;95090.09;;;;
2024/02/13 00:53:40;;;;;;;7.5;6.9;;;;;;;7.79;81.5;95090.09;;;;
2024/02/13 00:54:41;;;;;;;7.5;6.9;;;;;;;7.79;81.5;95090.09;;;;
2024/02/13 00:55:42;;;;;;;7.5;6.9;;;;;;;7.79;81.5;95090.09;;;;
2024/02/13 00:56:43;;;;;;;7.5;6.9;;;;;;;7.79;81.5;95090.09;;;;
2024/02/13 00:57:46;;;;;;;7.5;6.9;;;;;;;7.79;81.5;95090.09;;;;
2024/02/13 00:58:47;;;;;;;7.25;6.65;;;;;;;7.8;81.85156;95099.18;;;;
2024/02/13 00:59:48;;;;;;;7.25;6.65;;;;;;;7.8;81.85156;95099.18;;;;
2024/02/13 01:00:49;;;;;;;7.25;6.65;;;;;;;7.8;81.85156;95099.18;;;;
2024/02/13 01:01:49;;;;;;;7.25;6.65;;;;;;;7.8;81.85156;95099.18;;;;
2024/02/13 01:02:49;;;;;;;7.25;6.65;;;;;;;7.8;81.85156;95099.18;;;;
2024/02/13 01:03:51;;;;;;;7.25;6.65;;;;;;;7.8;81.85156;95099.18;;;;
2024/02/13 01:04:51;;;;;;;7.25;6.65;;;;;;;7.8;81.85156;95099.18;;;;
2024/02/13 01:05:52;;;;;;;7.25;6.65;;;;;;;7.8;81.85156;95099.18;;;;
2024/02/13 01:06:52;;;;;;;7.25;6.65;;;;;;;7.8;81.85156;95099.18;;;;
2024/02/13 01:07:53;;;;;;;7.25;6.65;;;;;;;7.8;81.85156;95099.18;;;;
2024/02/13 01:08:54;;;;;;;7.25;6.65;;;;;;;7.8;81.85156;95099.18;;;;
2024/02/13 01:09:55;;;;;;;7;6.3;;;;;;;7.63;82.90918;95118.48;;;;
2024/02/13 01:10:55;;;;;;;7;6.3;;;;;;;7.63;82.90918;95118.48;;;;
2024/02/13 01:11:56;;;;;;;7;6.3;;;;;;;7.63;82.90918;95118.48;;;;
2024/02/13 01:12:58;;;;;;;7;6.3;;;;;;;7.63;82.90918;95118.48;;;;
2024/02/13 01:14:00;;;;;;;7;6.3;;;;;;;7.63;82.90918;95118.48;;;;
2024/02/13 01:15:00;;;;;;;7;6.3;;;;;;;7.63;82.90918;95118.48;;;;
2024/02/13 01:16:03;;;;;;;7;6.3;;;;;;;7.63;82.90918;95118.48;;;;
2024/02/13 01:17:04;;;;;;;7;6.3;;;;;;;7.63;82.90918;95118.48;;;;
2024/02/13 01:18:06;;;;;;;7;6.3;;;;;;;7.63;82.90918;95118.48;;;;
2024/02/13 01:19:07;;;;;;;7;6.3;;;;;;;7.63;82.90918;95118.48;;;;
2024/02/13 01:20:09;;;;;;;6.250001;5.649999;;;;;;;7.63;82.99414;95126.37;;;;
2024/02/13 01:21:14;;;;;;;6.250001;5.649999;;;;;;;7.63;82.99414;95126.37;;;;
2024/02/13 01:22:15;;;;;;;6.250001;5.649999;;;;;;;7.63;82.99414;95126.37;;;;
2024/02/13 01:23:16;;;;;;;6.250001;5.649999;;;;;;;7.63;82.99414;95126.37;;;;
2024/02/13 01:24:16;;;;;;;6.250001;5.649999;;;;;;;7.63;82.99414;95126.37;;;;
2024/02/13 01:25:17;;;;;;;6.250001;5.649999;;;;;;;7.63;82.99414;95126.37;;;;
2024/02/13 01:26:18;;;;;;;6.250001;5.649999;;;;;;;7.63;82.99414;95126.37;;;;
2024/02/13 01:27:20;;;;;;;6.250001;5.649999;;;;;;;7.63;82.99414;95126.37;;;;
2024/02/13 01:28:22;;;;;;;6.250001;5.649999;;;;;;;7.63;82.99414;95126.37;;;;
2024/02/13 01:29:22;;;;;;;6.250001;5.649999;;;;;;;7.63;82.99414;95126.37;;;;
2024/02/13 01:30:23;;;;;;;6.250001;5.649999;;;;;;;7.63;82.99414;95126.37;;;;
2024/02/13 01:31:24;;;;;;;7.350001;6.65;;;;;;;7.65;83.00879;95141.05;;;;
2024/02/13 01:32:24;;;;;;;7.350001;6.65;;;;;;;7.65;83.00879;95141.05;;;;
2024/02/13 01:33:25;;;;;;;7.350001;6.65;;;;;;;7.65;83.00879;95141.05;;;;
2024/02/13 01:34:26;;;;;;;7.350001;6.65;;;;;;;7.65;83.00879;95141.05;;;;
2024/02/13 01:35:27;;;;;;;7.350001;6.65;;;;;;;7.65;83.00879;95141.05;;;;
2024/02/13 01:36:27;;;;;;;7.350001;6.65;;;;;;;7.65;83.00879;95141.05;;;;
2024/02/13 01:37:29;;;;;;;7.350001;6.65;;;;;;;7.65;83.00879;95141.05;;;;
2024/02/13 01:38:30;;;;;;;7.350001;6.65;;;;;;;7.65;83.00879;95141.05;;;;
2024/02/13 01:39:30;;;;;;;7.350001;6.65;;;;;;;7.65;83.00879;95141.05;;;;
2024/02/13 01:40:31;;;;;;;7.350001;6.65;;;;;;;7.65;83.00879;95141.05;;;;
2024/02/13 01:41:31;;;;;;;7.05;6.35;;;;;;;7.62;82.83301;95144.47;;;;
2024/02/13 01:42:37;;;;;;;7.05;6.35;;;;;;;7.62;82.83301;95144.47;;;;
2024/02/13 01:43:40;;;;;;;7.05;6.35;;;;;;;7.62;82.83301;95144.47;;;;
2024/02/13 01:44:40;;;;;;;7.05;6.35;;;;;;;7.62;82.83301;95144.47;;;;
2024/02/13 01:45:41;;;;;;;7.05;6.35;;;;;;;7.62;82.83301;95144.47;;;;
2024/02/13 01:46:41;;;;;;;7.05;6.35;;;;;;;7.62;82.83301;95144.47;;;;
2024/02/13 01:47:42;;;;;;;7.05;6.35;;;;;;;7.62;82.83301;95144.47;;;;
2024/02/13 01:48:44;;;;;;;7.05;6.35;;;;;;;7.62;82.83301;95144.47;;;;
2024/02/13 01:49:44;;;;;;;7.05;6.35;;;;;;;7.62;82.83301;95144.47;;;;
2024/02/13 01:50:45;;;;;;;7.05;6.35;;;;;;;7.62;82.83301;95144.47;;;;
2024/02/13 01:51:45;;;;;;;7.05;6.35;;;;;;;7.62;82.83301;95144.47;;;;
2024/02/13 01:52:47;;;;;;;6.95;6.35;;;;;;;7.65;82.76563;95161.57;;;;
2024/02/13 01:53:50;;;;;;;6.95;6.35;;;;;;;7.65;82.76563;95161.57;;;;
2024/02/13 01:54:52;;;;;;;6.95;6.35;;;;;;;7.65;82.76563;95161.57;;;;
2024/02/13 01:55:52;;;;;;;6.95;6.35;;;;;;;7.65;82.76563;95161.57;;;;
2024/02/13 01:56:54;;;;;;;6.95;6.35;;;;;;;7.65;82.76563;95161.57;;;;
2024/02/13 01:57:55;;;;;;;6.95;6.35;;;;;;;7.65;82.76563;95161.57;;;;
2024/02/13 01:58:59;;;;;;;6.95;6.35;;;;;;;7.65;82.76563;95161.57;;;;
2024/02/13 02:00:00;;;;;;;6.95;6.35;;;;;;;7.65;82.76563;95161.57;;;;
2024/02/13 02:01:03;;;;;;;6.95;6.35;;;;;;;7.65;82.76563;95161.57;;;;
2024/02/13 02:02:03;;;;;;;6.95;6.35;;;;;;;7.65;82.76563;95161.57;;;;
2024/02/13 02:03:04;;;;;;;5.750001;5.05;;;;;;;7.68;82.74707;95183.53;;;;
2024/02/13 02:04:06;;;;;;;5.750001;5.05;;;;;;;7.68;82.74707;95183.53;;;;
2024/02/13 02:05:10;;;;;;;5.750001;5.05;;;;;;;7.68;82.74707;95183.53;;;;
2024/02/13 02:06:11;;;;;;;5.750001;5.05;;;;;;;7.68;82.74707;95183.53;;;;
2024/02/13 02:07:12;;;;;;;5.750001;5.05;;;;;;;7.68;82.74707;95183.53;;;;
2024/02/13 02:08:13;;;;;;;5.750001;5.05;;;;;;;7.68;82.74707;95183.53;;;;
2024/02/13 02:09:15;;;;;;;5.750001;5.05;;;;;;;7.68;82.74707;95183.53;;;;
2024/02/13 02:10:16;;;;;;;5.750001;5.05;;;;;;;7.68;82.74707;95183.53;;;;
2024/02/13 02:11:16;;;;;;;5.750001;5.05;;;;;;;7.68;82.74707;95183.53;;;;
2024/02/13 02:12:17;;;;;;;5.750001;5.05;;;;;;;7.68;82.74707;95183.53;;;;
2024/02/13 02:13:17;;;;;;;5.750001;5.05;;;;;;;7.68;82.74707;95183.53;;;;
2024/02/13 02:14:18;;;;;;;5.95;5.250001;;;;;;;7.73;82.63965;95193.87;;;;
2024/02/13 02:15:19;;;;;;;5.95;5.250001;;;;;;;7.73;82.63965;95193.87;;;;
2024/02/13 02:16:19;;;;;;;5.95;5.250001;;;;;;;7.73;82.63965;95193.87;;;;
2024/02/13 02:17:20;;;;;;;5.95;5.250001;;;;;;;7.73;82.63965;95193.87;;;;
2024/02/13 02:18:20;;;;;;;5.95;5.250001;;;;;;;7.73;82.63965;95193.87;;;;
2024/02/13 02:19:22;;;;;;;5.95;5.250001;;;;;;;7.73;82.63965;95193.87;;;;
2024/02/13 02:20:22;;;;;;;5.95;5.250001;;;;;;;7.73;82.63965;95193.87;;;;
2024/02/13 02:21:23;;;;;;;5.95;5.250001;;;;;;;7.73;82.63965;95193.87;;;;
2024/02/13 02:22:23;;;;;;;5.95;5.250001;;;;;;;7.73;82.63965;95193.87;;;;
2024/02/13 02:23:26;;;;;;;5.95;5.250001;;;;;;;7.73;82.63965;95193.87;;;;
2024/02/13 02:24:26;;;;;;;6.150001;4.85;;;;;;;7.8;82.44922;95200.09;;;;
2024/02/13 02:25:28;;;;;;;6.150001;4.85;;;;;;;7.8;82.44922;95200.09;;;;
2024/02/13 02:26:30;;;;;;;6.150001;4.85;;;;;;;7.8;82.44922;95200.09;;;;
2024/02/13 02:27:30;;;;;;;6.150001;4.85;;;;;;;7.8;82.44922;95200.09;;;;
2024/02/13 02:28:31;;;;;;;6.150001;4.85;;;;;;;7.8;82.44922;95200.09;;;;
2024/02/13 02:29:31;;;;;;;6.150001;4.85;;;;;;;7.8;82.44922;95200.09;;;;
2024/02/13 02:30:33;;;;;;;6.150001;4.85;;;;;;;7.8;82.44922;95200.09;;;;
2024/02/13 02:31:34;;;;;;;6.150001;4.85;;;;;;;7.8;82.44922;95200.09;;;;
2024/02/13 02:32:34;;;;;;;6.150001;4.85;;;;;;;7.8;82.44922;95200.09;;;;
2024/02/13 02:33:35;;;;;;;6.150001;4.85;;;;;;;7.8;82.44922;95200.09;;;;
2024/02/13 02:34:35;;;;;;;6.150001;4.85;;;;;;;7.8;82.44922;95200.09;;;;
2024/02/13 02:35:36;;;;;;;5.300001;4.800001;;;;;;;7.74;82.95215;95214.34;;;;
2024/02/13 02:36:36;;;;;;;5.300001;4.800001;;;;;;;7.74;82.95215;95214.34;;;;
2024/02/13 02:37:39;;;;;;;5.300001;4.800001;;;;;;;7.74;82.95215;95214.34;;;;
2024/02/13 02:38:39;;;;;;;5.300001;4.800001;;;;;;;7.74;82.95215;95214.34;;;;
2024/02/13 02:39:40;;;;;;;5.300001;4.800001;;;;;;;7.74;82.95215;95214.34;;;;
2024/02/13 02:40:40;;;;;;;5.300001;4.800001;;;;;;;7.74;82.95215;95214.34;;;;
2024/02/13 02:41:41;;;;;;;5.300001;4.800001;;;;;;;7.74;82.95215;95214.34;;;;
2024/02/13 02:42:42;;;;;;;5.300001;4.800001;;;;;;;7.74;82.95215;95214.34;;;;
2024/02/13 02:43:44;;;;;;;5.300001;4.800001;;;;;;;7.74;82.95215;95214.34;;;;
2024/02/13 02:44:45;;;;;;;5.300001;4.800001;;;;;;;7.74;82.95215;95214.34;;;;
2024/02/13 02:45:45;;;;;;;6.7;4.750001;;;;;;;7.84;82.42578;95213.16;;;;
2024/02/13 02:46:47;;;;;;;6.7;4.750001;;;;;;;7.84;82.42578;95213.16;;;;
2024/02/13 02:47:48;;;;;;;6.7;4.750001;;;;;;;7.84;82.42578;95213.16;;;;
2024/02/13 02:48:49;;;;;;;6.7;4.750001;;;;;;;7.84;82.42578;95213.16;;;;
2024/02/13 02:49:49;;;;;;;6.7;4.750001;;;;;;;7.84;82.42578;95213.16;;;;
2024/02/13 02:50:50;;;;;;;6.7;4.750001;;;;;;;7.84;82.42578;95213.16;;;;
2024/02/13 02:51:50;;;;;;;6.7;4.750001;;;;;;;7.84;82.42578;95213.16;;;;
2024/02/13 02:52:51;;;;;;;6.7;4.750001;;;;;;;7.84;82.42578;95213.16;;;;
2024/02/13 02:53:52;;;;;;;6.7;4.750001;;;;;;;7.84;82.42578;95213.16;;;;
2024/02/13 02:54:52;;;;;;;6.7;4.750001;;;;;;;7.84;82.42578;95213.16;;;;
2024/02/13 02:55:54;;;;;;;6.7;4.750001;;;;;;;7.84;82.42578;95213.16;;;;
2024/02/13 02:56:54;;;;;;;5.5;5;;;;;;;7.99;81.64355;95231.75;;;;
2024/02/13 02:57:56;;;;;;;5.5;5;;;;;;;7.99;81.64355;95231.75;;;;
2024/02/13 02:58:57;;;;;;;5.5;5;;;;;;;7.99;81.64355;95231.75;;;;
2024/02/13 02:59:57;;;;;;;5.5;5;;;;;;;7.99;81.64355;95231.75;;;;
2024/02/13 03:00:57;;;;;;;5.5;5;;;;;;;7.99;81.64355;95231.75;;;;
2024/02/13 03:01:58;;;;;;;5.5;5;;;;;;;7.99;81.64355;95231.75;;;;
2024/02/13 03:02:59;;;;;;;5.5;5;;;;;;;7.99;81.64355;95231.75;;;;
2024/02/13 03:04:01;;;;;;;5.5;5;;;;;;;7.99;81.64355;95231.75;;;;
2024/02/13 03:05:03;;;;;;;5.5;5;;;;;;;7.99;81.64355;95231.75;;;;
2024/02/13 03:06:05;;;;;;;5.5;5;;;;;;;7.99;81.64355;95231.75;;;;
2024/02/13 03:07:08;;;;;;;6.5;4.049999;;;;;;;8.07;81.43555;95246.95;;;;
2024/02/13 03:08:09;;;;;;;6.5;4.049999;;;;;;;8.07;81.43555;95246.95;;;;
2024/02/13 03:09:10;;;;;;;6.5;4.049999;;;;;;;8.07;81.43555;95246.95;;;;
2024/02/13 03:10:10;;;;;;;6.5;4.049999;;;;;;;8.07;81.43555;95246.95;;;;
2024/02/13 03:11:11;;;;;;;6.5;4.049999;;;;;;;8.07;81.43555;95246.95;;;;
2024/02/13 03:12:11;;;;;;;6.5;4.049999;;;;;;;8.07;81.43555;95246.95;;;;
2024/02/13 03:13:13;;;;;;;6.5;4.049999;;;;;;;8.07;81.43555;95246.95;;;;
2024/02/13 03:14:14;;;;;;;6.5;4.049999;;;;;;;8.07;81.43555;95246.95;;;;
2024/02/13 03:15:15;;;;;;;6.5;4.049999;;;;;;;8.07;81.43555;95246.95;;;;
2024/02/13 03:16:15;;;;;;;6.5;4.049999;;;;;;;8.07;81.43555;95246.95;;;;
2024/02/13 03:17:16;;;;;;;6.5;4.049999;;;;;;;8.07;81.43555;95246.95;;;;
2024/02/13 03:18:17;;;;;;;4.6;4.2;;;;;;;8.11;81.35645;95265.7;;;;
2024/02/13 03:19:18;;;;;;;4.6;4.2;;;;;;;8.11;81.35645;95265.7;;;;
2024/02/13 03:20:18;;;;;;;4.6;4.2;;;;;;;8.11;81.35645;95265.7;;;;
2024/02/13 03:21:19;;;;;;;4.6;4.2;;;;;;;8.11;81.35645;95265.7;;;;
2024/02/13 03:22:19;;;;;;;4.6;4.2;;;;;;;8.11;81.35645;95265.7;;;;
2024/02/13 03:23:20;;;;;;;4.6;4.2;;;;;;;8.11;81.35645;95265.7;;;;
2024/02/13 03:24:20;;;;;;;4.6;4.2;;;;;;;8.11;81.35645;95265.7;;;;
2024/02/13 03:25:21;;;;;;;4.6;4.2;;;;;;;8.11;81.35645;95265.7;;;;
2024/02/13 03:26:21;;;;;;;4.6;4.2;;;;;;;8.11;81.35645;95265.7;;;;
2024/02/13 03:27:22;;;;;;;4.6;4.2;;;;;;;8.11;81.35645;95265.7;;;;
2024/02/13 03:28:22;;;;;;;6.249999;4.400001;;;;;;;8.07;81.36914;95274.19;;;;
2024/02/13 03:29:22;;;;;;;6.249999;4.400001;;;;;;;8.07;81.36914;95274.19;;;;
2024/02/13 03:30:23;;;;;;;6.249999;4.400001;;;;;;;8.07;81.36914;95274.19;;;;
2024/02/13 03:31:24;;;;;;;6.249999;4.400001;;;;;;;8.07;81.36914;95274.19;;;;
2024/02/13 03:32:25;;;;;;;6.249999;4.400001;;;;;;;8.07;81.36914;95274.19;;;;
2024/02/13 03:33:26;;;;;;;6.249999;4.400001;;;;;;;8.07;81.36914;95274.19;;;;
2024/02/13 03:34:26;;;;;;;6.249999;4.400001;;;;;;;8.07;81.36914;95274.19;;;;
2024/02/13 03:35:27;;;;;;;6.249999;4.400001;;;;;;;8.07;81.36914;95274.19;;;;
2024/02/13 03:36:28;;;;;;;6.249999;4.400001;;;;;;;8.07;81.36914;95274.19;;;;
2024/02/13 03:37:28;;;;;;;6.249999;4.400001;;;;;;;8.07;81.36914;95274.19;;;;
2024/02/13 03:38:28;;;;;;;6.249999;4.400001;;;;;;;8.07;81.36914;95274.19;;;;
2024/02/13 03:39:29;;;;;;;4.6;4.15;;;;;;;8;81.25;95289.54;;;;
2024/02/13 03:40:29;;;;;;;4.6;4.15;;;;;;;8;81.25;95289.54;;;;
2024/02/13 03:41:30;;;;;;;4.6;4.15;;;;;;;8;81.25;95289.54;;;;
2024/02/13 03:42:30;;;;;;;4.6;4.15;;;;;;;8;81.25;95289.54;;;;
2024/02/13 03:43:31;;;;;;;4.6;4.15;;;;;;;8;81.25;95289.54;;;;
2024/02/13 03:44:31;;;;;;;4.6;4.15;;;;;;;8;81.25;95289.54;;;;
2024/02/13 03:45:32;;;;;;;4.6;4.15;;;;;;;8;81.25;95289.54;;;;
2024/02/13 03:46:33;;;;;;;4.6;4.15;;;;;;;8;81.25;95289.54;;;;
2024/02/13 03:47:33;;;;;;;4.6;4.15;;;;;;;8;81.25;95289.54;;;;
2024/02/13 03:48:34;;;;;;;4.6;4.15;;;;;;;8;81.25;95289.54;;;;
2024/02/13 03:49:35;;;;;;;5.15;4.099999;;;;;;;7.94;81.18457;95299.13;;;;
2024/02/13 03:50:35;;;;;;;5.15;4.099999;;;;;;;7.94;81.18457;95299.13;;;;
2024/02/13 03:51:36;;;;;;;5.15;4.099999;;;;;;;7.94;81.18457;95299.13;;;;
2024/02/13 03:52:36;;;;;;;5.15;4.099999;;;;;;;7.94;81.18457;95299.13;;;;
2024/02/13 03:53:37;;;;;;;5.15;4.099999;;;;;;;7.94;81.18457;95299.13;;;;
2024/02/13 03:54:38;;;;;;;5.15;4.099999;;;;;;;7.94;81.18457;95299.13;;;;
2024/02/13 03:55:39;;;;;;;5.15;4.099999;;;;;;;7.94;81.18457;95299.13;;;;
2024/02/13 03:56:39;;;;;;;5.15;4.099999;;;;;;;7.94;81.18457;95299.13;;;;
2024/02/13 03:57:41;;;;;;;5.15;4.099999;;;;;;;7.94;81.18457;95299.13;;;;
2024/02/13 03:58:41;;;;;;;5.15;4.099999;;;;;;;7.94;81.18457;95299.13;;;;
2024/02/13 03:59:42;;;;;;;5.15;4.099999;;;;;;;7.94;81.18457;95299.13;;;;
2024/02/13 04:00:42;;;;;;;5.05;4.049999;;;;;;;7.97;81.13672;95318.48;;;;
2024/02/13 04:01:43;;;;;;;5.05;4.049999;;;;;;;7.97;81.13672;95318.48;;;;
2024/02/13 04:02:44;;;;;;;5.05;4.049999;;;;;;;7.97;81.13672;95318.48;;;;
2024/02/13 04:03:44;;;;;;;5.05;4.049999;;;;;;;7.97;81.13672;95318.48;;;;
2024/02/13 04:04:45;;;;;;;5.05;4.049999;;;;;;;7.97;81.13672;95318.48;;;;
2024/02/13 04:05:45;;;;;;;5.05;4.049999;;;;;;;7.97;81.13672;95318.48;;;;
2024/02/13 04:06:46;;;;;;;5.05;4.049999;;;;;;;7.97;81.13672;95318.48;;;;
2024/02/13 04:07:46;;;;;;;5.05;4.049999;;;;;;;7.97;81.13672;95318.48;;;;
2024/02/13 04:08:47;;;;;;;5.05;4.049999;;;;;;;7.97;81.13672;95318.48;;;;
2024/02/13 04:09:47;;;;;;;5.05;4.049999;;;;;;;7.97;81.13672;95318.48;;;;
2024/02/13 04:10:48;;;;;;;5.05;4.049999;;;;;;;7.97;81.13672;95318.48;;;;
2024/02/13 04:11:50;;;;;;;5.9;3.8;;;;;;;8.18;79.88574;95328.82;;;;
2024/02/13 04:12:50;;;;;;;5.9;3.8;;;;;;;8.18;79.88574;95328.82;;;;
2024/02/13 04:13:51;;;;;;;5.9;3.8;;;;;;;8.18;79.88574;95328.82;;;;
2024/02/13 04:14:51;;;;;;;5.9;3.8;;;;;;;8.18;79.88574;95328.82;;;;
2024/02/13 04:15:51;;;;;;;5.9;3.8;;;;;;;8.18;79.88574;95328.82;;;;
2024/02/13 04:16:52;;;;;;;5.9;3.8;;;;;;;8.18;79.88574;95328.82;;;;
2024/02/13 04:17:52;;;;;;;5.9;3.8;;;;;;;8.18;79.88574;95328.82;;;;
2024/02/13 04:18:53;;;;;;;5.9;3.8;;;;;;;8.18;79.88574;95328.82;;;;
2024/02/13 04:19:53;;;;;;;5.9;3.8;;;;;;;8.18;79.88574;95328.82;;;;
2024/02/13 04:20:54;;;;;;;5.9;3.8;;;;;;;8.18;79.88574;95328.82;;;;
2024/02/13 04:21:54;;;;;;;5.55;3.8;;;;;;;8.1;79.91309;95329.89;;;;
2024/02/13 04:22:55;;;;;;;5.55;3.8;;;;;;;8.1;79.91309;95329.89;;;;
2024/02/13 04:23:56;;;;;;;5.55;3.8;;;;;;;8.1;79.91309;95329.89;;;;
2024/02/13 04:24:56;;;;;;;5.55;3.8;;;;;;;8.1;79.91309;95329.89;;;;
2024/02/13 04:25:57;;;;;;;5.55;3.8;;;;;;;8.1;79.91309;95329.89;;;;
2024/02/13 04:26:57;;;;;;;5.55;3.8;;;;;;;8.1;79.91309;95329.89;;;;
2024/02/13 04:27:58;;;;;;;5.55;3.8;;;;;;;8.1;79.91309;95329.89;;;;
2024/02/13 04:28:59;;;;;;;5.55;3.8;;;;;;;8.1;79.91309;95329.89;;;;
2024/02/13 04:30:00;;;;;;;5.55;3.8;;;;;;;8.1;79.91309;95329.89;;;;
2024/02/13 04:31:00;;;;;;;5.55;3.8;;;;;;;8.1;79.91309;95329.89;;;;
2024/02/13 04:32:01;;;;;;;5.55;3.8;;;;;;;8.1;79.91309;95329.89;;;;
2024/02/13 04:33:02;;;;;;;5.450001;3.75;;;;;;;7.94;80.68262;95342.97;;;;
2024/02/13 04:34:02;;;;;;;5.450001;3.75;;;;;;;7.94;80.68262;95342.97;;;;
2024/02/13 04:35:03;;;;;;;5.450001;3.75;;;;;;;7.94;80.68262;95342.97;;;;
2024/02/13 04:36:05;;;;;;;5.450001;3.75;;;;;;;7.94;80.68262;95342.97;;;;
2024/02/13 04:37:06;;;;;;;5.450001;3.75;;;;;;;7.94;80.68262;95342.97;;;;
2024/02/13 04:38:07;;;;;;;5.450001;3.75;;;;;;;7.94;80.68262;95342.97;;;;
2024/02/13 04:39:08;;;;;;;5.450001;3.75;;;;;;;7.94;80.68262;95342.97;;;;
2024/02/13 04:40:08;;;;;;;5.450001;3.75;;;;;;;7.94;80.68262;95342.97;;;;
2024/02/13 04:41:10;;;;;;;5.450001;3.75;;;;;;;7.94;80.68262;95342.97;;;;
2024/02/13 04:42:11;;;;;;;5.450001;3.75;;;;;;;7.94;80.68262;95342.97;;;;
2024/02/13 04:43:12;;;;;;;3.7;3.3;;;;;;;7.84;80.93262;95359.11;;;;
2024/02/13 04:44:13;;;;;;;3.7;3.3;;;;;;;7.84;80.93262;95359.11;;;;
2024/02/13 04:45:14;;;;;;;3.7;3.3;;;;;;;7.84;80.93262;95359.11;;;;
2024/02/13 04:46:15;;;;;;;3.7;3.3;;;;;;;7.84;80.93262;95359.11;;;;
2024/02/13 04:47:15;;;;;;;3.7;3.3;;;;;;;7.84;80.93262;95359.11;;;;
2024/02/13 04:48:16;;;;;;;3.7;3.3;;;;;;;7.84;80.93262;95359.11;;;;
2024/02/13 04:49:16;;;;;;;3.7;3.3;;;;;;;7.84;80.93262;95359.11;;;;
2024/02/13 04:50:17;;;;;;;3.7;3.3;;;;;;;7.84;80.93262;95359.11;;;;
2024/02/13 04:51:17;;;;;;;3.7;3.3;;;;;;;7.84;80.93262;95359.11;;;;
2024/02/13 04:52:18;;;;;;;3.7;3.3;;;;;;;7.84;80.93262;95359.11;;;;
2024/02/13 04:53:21;;;;;;;3.7;3.3;;;;;;;7.84;80.93262;95359.11;;;;
2024/02/13 04:54:22;;;;;;;4.55;3.8;;;;;;;7.74;80.78516;95368.75;;;;
2024/02/13 04:55:24;;;;;;;4.55;3.8;;;;;;;7.74;80.78516;95368.75;;;;
2024/02/13 04:56:26;;;;;;;4.55;3.8;;;;;;;7.74;80.78516;95368.75;;;;
2024/02/13 04:57:27;;;;;;;4.55;3.8;;;;;;;7.74;80.78516;95368.75;;;;
2024/02/13 04:58:27;;;;;;;4.55;3.8;;;;;;;7.74;80.78516;95368.75;;;;
2024/02/13 04:59:37;;;;;;;4.55;3.8;;;;;;;7.74;80.78516;95368.75;;;;
2024/02/13 05:00:39;;;;;;;4.55;3.8;;;;;;;7.74;80.78516;95368.75;;;;
2024/02/13 05:01:43;;;;;;;4.55;3.8;;;;;;;7.74;80.78516;95368.75;;;;
2024/02/13 05:02:46;;;;;;;4.55;3.8;;;;;;;7.74;80.78516;95368.75;;;;
2024/02/13 05:07:19;;;;;;;4.55;3.8;;;;;;;7.74;80.78516;95368.75;;;;
2024/02/13 05:08:20;;;;;;;3.75;3.400001;;;;;;;7.33;81.97656;95371.37;;;;
2024/02/13 05:09:23;;;;;;;3.75;3.400001;;;;;;;7.33;81.97656;95371.37;;;;
2024/02/13 05:10:23;;;;;;;3.75;3.400001;;;;;;;7.33;81.97656;95371.37;;;;
2024/02/13 05:11:24;;;;;;;3.75;3.400001;;;;;;;7.33;81.97656;95371.37;;;;
2024/02/13 05:12:25;;;;;;;3.75;3.400001;;;;;;;7.33;81.97656;95371.37;;;;
2024/02/13 05:13:26;;;;;;;3.75;3.400001;;;;;;;7.33;81.97656;95371.37;;;;
2024/02/13 05:14:27;;;;;;;3.75;3.400001;;;;;;;7.33;81.97656;95371.37;;;;
2024/02/13 05:15:29;;;;;;;4.4;3.5;;;;;;;7.25;81.96289;95377.56;;;;
2024/02/13 05:16:29;;;;;;;4.4;3.5;;;;;;;7.25;81.96289;95377.56;;;;
2024/02/13 05:17:30;;;;;;;4.4;3.5;;;;;;;7.25;81.96289;95377.56;;;;
2024/02/13 05:18:32;;;;;;;4.4;3.5;;;;;;;7.25;81.96289;95377.56;;;;
2024/02/13 05:19:32;;;;;;;4.4;3.5;;;;;;;7.25;81.96289;95377.56;;;;
2024/02/13 05:20:35;;;;;;;4.4;3.5;;;;;;;7.25;81.96289;95377.56;;;;
2024/02/13 05:21:35;;;;;;;4.4;3.5;;;;;;;7.25;81.96289;95377.56;;;;
2024/02/13 05:22:36;;;;;;;4.4;3.5;;;;;;;7.25;81.96289;95377.56;;;;
2024/02/13 05:23:38;;;;;;;4.4;3.5;;;;;;;7.25;81.96289;95377.56;;;;
2024/02/13 05:24:39;;;;;;;4.4;3.5;;;;;;;7.25;81.96289;95377.56;;;;
2024/02/13 05:25:39;;;;;;;6.500001;3.4;;;;;;;7.11;81.92578;95388.97;;;;
2024/02/13 05:26:40;;;;;;;6.500001;3.4;;;;;;;7.11;81.92578;95388.97;;;;
2024/02/13 05:27:41;;;;;;;6.500001;3.4;;;;;;;7.11;81.92578;95388.97;;;;
2024/02/13 05:28:42;;;;;;;6.500001;3.4;;;;;;;7.11;81.92578;95388.97;;;;
2024/02/13 05:29:43;;;;;;;6.500001;3.4;;;;;;;7.11;81.92578;95388.97;;;;
2024/02/13 05:30:43;;;;;;;6.500001;3.4;;;;;;;7.11;81.92578;95388.97;;;;
2024/02/13 05:31:44;;;;;;;6.500001;3.4;;;;;;;7.11;81.92578;95388.97;;;;
2024/02/13 05:32:45;;;;;;;6.500001;3.4;;;;;;;7.11;81.92578;95388.97;;;;
2024/02/13 05:33:46;;;;;;;6.500001;3.4;;;;;;;7.11;81.92578;95388.97;;;;
2024/02/13 05:34:46;;;;;;;6.500001;3.4;;;;;;;7.11;81.92578;95388.97;;;;
2024/02/13 05:35:47;;;;;;;6.500001;3.4;;;;;;;7.11;81.92578;95388.97;;;;
2024/02/13 05:36:48;;;;;;;3.75;3.3;;;;;;;6.88;81.09473;95382.58;;;;
2024/02/13 05:37:51;;;;;;;3.75;3.3;;;;;;;6.88;81.09473;95382.58;;;;
2024/02/13 05:38:52;;;;;;;3.75;3.3;;;;;;;6.88;81.09473;95382.58;;;;
2024/02/13 05:39:54;;;;;;;3.75;3.3;;;;;;;6.88;81.09473;95382.58;;;;
2024/02/13 05:40:54;;;;;;;3.75;3.3;;;;;;;6.88;81.09473;95382.58;;;;
2024/02/13 05:41:55;;;;;;;3.75;3.3;;;;;;;6.88;81.09473;95382.58;;;;
2024/02/13 05:42:57;;;;;;;3.75;3.3;;;;;;;6.88;81.09473;95382.58;;;;
2024/02/13 05:43:57;;;;;;;3.75;3.3;;;;;;;6.88;81.09473;95382.58;;;;
2024/02/13 05:44:58;;;;;;;3.75;3.3;;;;;;;6.88;81.09473;95382.58;;;;
2024/02/13 05:45:58;;;;;;;3.75;3.3;;;;;;;6.88;81.09473;95382.58;;;;
2024/02/13 05:46:59;;;;;;;4.199999;3.35;;;;;;;6.65;79.99609;95396.44;;;;
2024/02/13 05:48:01;;;;;;;4.199999;3.35;;;;;;;6.65;79.99609;95396.44;;;;
2024/02/13 05:49:01;;;;;;;4.199999;3.35;;;;;;;6.65;79.99609;95396.44;;;;